Time;durP1;ratioP1;P1;durP2;ratioP2;P2;SDS_P1;SDS_P2;PMS_P1;PMS_P2;Temp;Humidity;BMP_temperature;BMP_pressure;BME280_temperature;BME280_humidity;BME280_pressure;Samples;Min_cycle;Max_cycle;Signal;HPM_P1;HPM_P2
2023/09/19 00:00:59;;;;;;;5.93;4.10;;;29.80;24.80;;;;;;4932609;29;20207;-75
2023/09/19 00:03:31;;;;;;;6.40;4.03;;;30.10;24.70;;;;;;4933294;29;20272;-76
2023/09/19 00:05:59;;;;;;;4.33;3.93;;;30.30;24.30;;;;;;4932388;29;20639;-76
2023/09/19 00:08:27;;;;;;;7.60;4.10;;;30.40;24.10;;;;;;4934618;29;20184;-78
2023/09/19 00:10:56;;;;;;;8.17;3.97;;;30.50;23.70;;;;;;4934363;29;20184;-72
2023/09/19 00:13:24;;;;;;;11.13;4.47;;;30.50;24.00;;;;;;4935686;29;20188;-74
2023/09/19 00:15:52;;;;;;;4.70;4.20;;;30.50;23.70;;;;;;4933793;29;20274;-75
2023/09/19 00:18:21;;;;;;;8.80;4.23;;;30.60;23.90;;;;;;4934115;29;20225;-73
2023/09/19 00:20:49;;;;;;;6.80;4.10;;;30.70;23.40;;;;;;4934385;29;20667;-74
2023/09/19 00:23:16;;;;;;;5.30;4.10;;;30.80;23.70;;;;;;4933631;29;20219;-75
2023/09/19 00:25:45;;;;;;;4.30;3.83;;;30.90;23.40;;;;;;4930197;29;20192;-75
2023/09/19 00:28:12;;;;;;;6.63;4.13;;;31.10;23.60;;;;;;4923389;29;20196;-73
2023/09/19 00:30:42;;;;;;;7.93;4.07;;;31.10;23.40;;;;;;4926063;29;20699;-74
2023/09/19 00:33:11;;;;;;;4.57;3.90;;;31.10;23.20;;;;;;4917918;29;20196;-74
2023/09/19 00:35:42;;;;;;;4.18;3.47;;;31.20;23.10;;;;;;4926556;29;20236;-75
2023/09/19 00:38:10;;;;;;;4.85;4.00;;;31.30;23.00;;;;;;4936951;29;20218;-72
2023/09/19 00:40:37;;;;;;;4.72;3.92;;;31.30;22.20;;;;;;4938288;29;20192;-74
2023/09/19 00:43:05;;;;;;;4.38;3.97;;;31.20;22.50;;;;;;4938359;29;20200;-74
2023/09/19 00:45:32;;;;;;;7.75;4.10;;;31.30;23.00;;;;;;4920581;29;20266;-73
2023/09/19 00:48:03;;;;;;;8.20;4.30;;;31.50;22.80;;;;;;4937597;29;20195;-75
2023/09/19 00:50:32;;;;;;;5.70;4.17;;;31.30;22.70;;;;;;4937511;29;20209;-74
2023/09/19 00:52:59;;;;;;;7.22;3.90;;;31.50;22.40;;;;;;4938005;29;20533;-74
2023/09/19 00:55:32;;;;;;;6.22;4.35;;;31.50;22.80;;;;;;4937012;29;20211;-74
2023/09/19 00:58:00;;;;;;;4.50;3.70;;;31.60;22.80;;;;;;4937709;29;20227;-73
2023/09/19 01:00:29;;;;;;;5.57;3.88;;;31.70;22.90;;;;;;4936946;29;20263;-74
2023/09/19 01:02:56;;;;;;;6.50;4.05;;;31.80;22.40;;;;;;4937631;29;20188;-75
2023/09/19 01:05:29;;;;;;;5.13;3.78;;;31.70;22.30;;;;;;4937243;29;20526;-73
2023/09/19 01:07:58;;;;;;;6.55;4.13;;;31.80;22.70;;;;;;4937423;29;20199;-73
2023/09/19 01:10:26;;;;;;;4.40;3.88;;;32.00;22.30;;;;;;4936984;29;20176;-74
2023/09/19 01:13:31;;;;;;;4.95;3.70;;;32.10;21.80;;;;;;4936842;29;20236;-73
2023/09/19 01:16:07;;;;;;;6.22;3.78;;;32.30;21.90;;;;;;4934974;29;20180;-75
2023/09/19 01:19:28;;;;;;;8.20;4.28;;;32.40;22.00;;;;;;4937110;29;20464;-76
2023/09/19 01:22:06;;;;;;;5.20;3.70;;;32.60;22.10;;;;;;4937162;29;20243;-75
2023/09/19 01:25:01;;;;;;;6.25;3.88;;;32.60;21.80;;;;;;4936513;29;20199;-70
2023/09/19 01:28:06;;;;;;;10.30;3.70;;;32.50;21.80;;;;;;4937083;29;20642;-76
2023/09/19 01:30:43;;;;;;;5.40;3.53;;;32.70;21.80;;;;;;4935501;29;20198;-75
2023/09/19 01:33:11;;;;;;;4.55;3.58;;;32.80;21.40;;;;;;4936991;29;20666;-73
2023/09/19 01:35:41;;;;;;;4.90;3.53;;;32.50;21.00;;;;;;4935877;29;20239;-76
2023/09/19 01:38:11;;;;;;;6.07;4.32;;;32.80;21.40;;;;;;4937265;29;20212;-75
2023/09/19 01:40:43;;;;;;;8.95;3.55;;;32.70;21.10;;;;;;4916075;29;20188;-74
2023/09/19 01:43:36;;;;;;;5.85;3.85;;;32.90;21.10;;;;;;4935114;29;20593;-73
2023/09/19 01:46:10;;;;;;;4.28;3.50;;;33.00;21.10;;;;;;4936486;29;20528;-74
2023/09/19 01:49:01;;;;;;;4.28;3.88;;;33.20;20.90;;;;;;4936208;29;20192;-75
2023/09/19 01:51:53;;;;;;;9.57;3.80;;;33.30;21.00;;;;;;4935896;29;20184;-73
2023/09/19 01:54:30;;;;;;;4.03;3.65;;;33.40;20.70;;;;;;4936097;29;20249;-71
2023/09/19 01:57:15;;;;;;;5.53;4.35;;;33.40;20.80;;;;;;4935933;29;20249;-75
2023/09/19 01:59:51;;;;;;;8.00;5.10;;;33.30;20.90;;;;;;4929702;29;20588;-74
2023/09/19 02:02:22;;;;;;;7.93;4.30;;;33.70;20.50;;;;;;4936162;29;20244;-74
2023/09/19 02:04:50;;;;;;;6.68;4.00;;;33.80;20.40;;;;;;4936474;29;20666;-74
2023/09/19 02:07:22;;;;;;;5.25;3.50;;;34.00;20.10;;;;;;4934844;29;20658;-74
2023/09/19 02:09:52;;;;;;;8.00;4.13;;;34.10;20.30;;;;;;4930212;29;20267;-73
2023/09/19 02:12:20;;;;;;;5.03;3.88;;;34.30;20.10;;;;;;4935774;29;20278;-70
2023/09/19 02:14:50;;;;;;;8.50;4.20;;;34.30;19.50;;;;;;4932354;29;20318;-76
2023/09/19 02:17:31;;;;;;;4.32;3.55;;;34.00;20.00;;;;;;4935798;29;20580;-73
2023/09/19 02:20:02;;;;;;;8.23;4.25;;;34.30;19.60;;;;;;4936176;29;20639;-74
2023/09/19 02:22:32;;;;;;;5.53;4.20;;;34.40;19.40;;;;;;4917720;29;20184;-74
2023/09/19 02:25:00;;;;;;;4.35;3.58;;;34.40;19.60;;;;;;4936386;29;20267;-74
2023/09/19 02:27:33;;;;;;;6.43;3.83;;;34.40;19.20;;;;;;4934560;29;20187;-72
2023/09/19 02:30:15;;;;;;;6.63;3.67;;;34.60;19.60;;;;;;4935709;29;20191;-72
2023/09/19 02:32:49;;;;;;;7.30;3.75;;;34.90;18.90;;;;;;4935879;29;20172;-74
2023/09/19 02:35:36;;;;;;;7.22;3.80;;;34.80;18.40;;;;;;4935409;29;20624;-73
2023/09/19 02:38:06;;;;;;;12.68;4.13;;;34.90;18.10;;;;;;4935336;29;20592;-73
2023/09/19 02:40:39;;;;;;;8.25;3.65;;;34.90;18.10;;;;;;4935527;29;20264;-73
2023/09/19 02:43:08;;;;;;;4.75;3.53;;;35.30;17.20;;;;;;4932056;29;20521;-75
2023/09/19 02:45:35;;;;;;;5.05;3.85;;;35.50;17.70;;;;;;4934847;29;20745;-74
2023/09/19 02:48:04;;;;;;;8.25;4.07;;;35.70;17.40;;;;;;4935877;29;20184;-74
2023/09/19 02:50:34;;;;;;;4.57;3.88;;;35.30;17.30;;;;;;4935273;29;20184;-74
2023/09/19 02:53:06;;;;;;;4.85;3.80;;;35.40;17.40;;;;;;4929968;29;20176;-75
2023/09/19 02:55:34;;;;;;;5.45;3.55;;;35.80;17.10;;;;;;4913957;29;20188;-74
2023/09/19 02:58:02;;;;;;;3.72;3.40;;;35.80;16.70;;;;;;4926747;29;20238;-76
2023/09/19 03:00:33;;;;;;;7.80;3.78;;;35.60;17.20;;;;;;4923272;29;20176;-73
2023/09/19 03:03:06;;;;;;;4.43;3.22;;;35.80;17.00;;;;;;4930065;29;20244;-74
2023/09/19 03:05:33;;;;;;;4.53;4.00;;;36.10;17.00;;;;;;4936200;29;20215;-75
2023/09/19 03:08:01;;;;;;;5.05;3.65;;;36.40;16.90;;;;;;4930402;29;20273;-74
2023/09/19 03:10:30;;;;;;;6.15;3.72;;;36.50;17.10;;;;;;4934495;29;20196;-73
2023/09/19 03:12:59;;;;;;;5.15;3.50;;;35.90;17.10;;;;;;4935423;29;20218;-75
2023/09/19 03:15:27;;;;;;;3.83;3.30;;;35.90;17.20;;;;;;4934408;29;20219;-74
2023/09/19 03:17:54;;;;;;;3.78;3.47;;;35.90;17.20;;;;;;4935001;29;20565;-72
2023/09/19 03:20:22;;;;;;;5.35;3.92;;;36.30;17.20;;;;;;4934554;29;20182;-74
2023/09/19 03:22:49;;;;;;;6.18;3.75;;;36.50;16.80;;;;;;4934757;29;20191;-75
2023/09/19 03:25:17;;;;;;;4.03;3.63;;;36.10;16.70;;;;;;4933999;29;20200;-73
2023/09/19 03:27:45;;;;;;;9.57;3.30;;;36.30;17.10;;;;;;4933868;29;20192;-73
2023/09/19 03:30:14;;;;;;;3.83;3.50;;;36.40;16.60;;;;;;4934583;29;20176;-74
2023/09/19 03:33:08;;;;;;;3.55;3.25;;;36.40;16.80;;;;;;4934497;29;20187;-73
2023/09/19 03:35:39;;;;;;;4.82;3.85;;;36.40;17.00;;;;;;4934248;29;20328;-74
2023/09/19 03:38:07;;;;;;;5.75;4.03;;;37.00;16.90;;;;;;4934692;29;20254;-75
2023/09/19 03:40:37;;;;;;;4.97;3.83;;;37.20;16.40;;;;;;4933656;29;20188;-76
2023/09/19 03:43:05;;;;;;;6.55;3.50;;;37.20;16.00;;;;;;4934942;29;20295;-74
2023/09/19 03:45:34;;;;;;;4.38;3.33;;;36.90;15.90;;;;;;4932259;29;20191;-73
2023/09/19 03:48:08;;;;;;;6.45;3.53;;;37.00;15.70;;;;;;4929632;29;20188;-74
2023/09/19 03:50:37;;;;;;;3.83;3.45;;;37.00;16.20;;;;;;4934284;29;20199;-75
2023/09/19 03:53:08;;;;;;;3.95;3.55;;;36.90;15.90;;;;;;4930650;29;20176;-75
2023/09/19 03:55:36;;;;;;;4.78;3.53;;;36.90;15.80;;;;;;4933274;29;20301;-73
2023/09/19 03:58:03;;;;;;;7.90;3.90;;;36.60;16.00;;;;;;4929844;29;20211;-74
2023/09/19 04:00:31;;;;;;;7.10;3.78;;;36.60;16.50;;;;;;4934217;29;20188;-75
2023/09/19 04:03:02;;;;;;;4.97;3.97;;;37.00;16.30;;;;;;4932140;29;20640;-74
2023/09/19 04:05:29;;;;;;;7.72;3.90;;;37.30;16.00;;;;;;4925234;29;20263;-73
2023/09/19 04:08:00;;;;;;;3.83;3.42;;;37.70;15.60;;;;;;4933114;29;20260;-76
2023/09/19 04:10:28;;;;;;;4.25;3.85;;;37.70;15.80;;;;;;4932602;29;20192;-71
2023/09/19 04:12:56;;;;;;;8.57;3.45;;;37.70;15.70;;;;;;4933878;29;20188;-75
2023/09/19 04:15:24;;;;;;;3.75;3.30;;;37.70;15.40;;;;;;4935028;29;20183;-74
2023/09/19 04:17:59;;;;;;;5.38;3.47;;;37.70;15.50;;;;;;4935132;29;20215;-73
2023/09/19 04:20:27;;;;;;;3.72;3.00;;;37.60;15.70;;;;;;4914717;29;20313;-73
2023/09/19 04:22:54;;;;;;;11.00;4.13;;;37.50;15.40;;;;;;4933140;29;20188;-73
2023/09/19 04:25:22;;;;;;;5.28;3.33;;;37.60;15.40;;;;;;4934178;29;20261;-73
2023/09/19 04:27:49;;;;;;;4.95;3.65;;;37.80;15.70;;;;;;4935019;29;20192;-73
2023/09/19 04:30:17;;;;;;;5.55;3.80;;;38.30;15.10;;;;;;4933354;29;20603;-73
2023/09/19 04:32:50;;;;;;;6.55;3.92;;;37.60;15.30;;;;;;4932291;29;20187;-74
2023/09/19 04:35:17;;;;;;;5.40;3.35;;;37.30;15.80;;;;;;4929643;29;20523;-71
2023/09/19 04:37:50;;;;;;;4.50;3.47;;;37.50;15.30;;;;;;4930939;29;20220;-73
2023/09/19 04:40:19;;;;;;;7.45;3.55;;;37.60;15.70;;;;;;4930926;29;20187;-74
2023/09/19 04:42:56;;;;;;;4.78;3.85;;;37.80;15.40;;;;;;4927921;29;20183;-71
2023/09/19 04:45:24;;;;;;;7.05;4.05;;;37.80;15.20;;;;;;4930224;29;20688;-73
2023/09/19 04:47:52;;;;;;;3.75;3.38;;;38.10;15.30;;;;;;4929889;29;20184;-72
2023/09/19 04:50:20;;;;;;;8.20;4.00;;;38.30;15.10;;;;;;4925421;28;21038;-73
2023/09/19 04:52:50;;;;;;;7.20;3.53;;;38.00;15.30;;;;;;4928076;29;20690;-74
2023/09/19 04:55:19;;;;;;;4.00;3.60;;;38.70;14.70;;;;;;4928103;29;20197;-74
2023/09/19 04:57:47;;;;;;;6.00;3.47;;;38.90;15.10;;;;;;4928671;29;20212;-74
2023/09/19 05:00:19;;;;;;;7.32;3.85;;;38.90;14.90;;;;;;4930536;29;20196;-72
2023/09/19 05:02:51;;;;;;;5.68;4.05;;;38.70;14.90;;;;;;4928698;29;20188;-73
2023/09/19 05:05:18;;;;;;;14.45;6.70;;;38.30;14.90;;;;;;4929431;29;20682;-72
2023/09/19 05:07:47;;;;;;;19.65;8.48;;;38.30;20.30;;;;;;4931653;29;20191;-73
2023/09/19 05:10:15;;;;;;;15.52;8.30;;;37.30;25.80;;;;;;4932271;29;20188;-75
2023/09/19 05:12:45;;;;;;;20.73;9.35;;;37.10;25.90;;;;;;4928980;29;20242;-74
2023/09/19 05:15:16;;;;;;;18.48;9.95;;;37.40;25.50;;;;;;4927963;29;21170;-75
2023/09/19 05:17:50;;;;;;;21.55;10.38;;;36.80;27.70;;;;;;4928480;29;20306;-72
2023/09/19 05:20:39;;;;;;;19.92;9.20;;;36.40;28.50;;;;;;4930966;29;20188;-74
2023/09/19 05:23:09;;;;;;;15.68;7.82;;;35.80;28.80;;;;;;4929643;29;20195;-75
2023/09/19 05:25:40;;;;;;;19.90;9.57;;;34.90;30.00;;;;;;4934976;29;20184;-72
2023/09/19 05:28:10;;;;;;;15.38;9.15;;;35.60;30.40;;;;;;4935300;29;20192;-74
2023/09/19 05:30:43;;;;;;;25.08;9.32;;;35.30;31.20;;;;;;4933623;29;20196;-70
2023/09/19 05:33:10;;;;;;;17.67;8.65;;;35.20;31.00;;;;;;4933520;29;20188;-75
2023/09/19 05:35:41;;;;;;;24.17;9.85;;;35.30;31.40;;;;;;4931434;29;20216;-73
2023/09/19 05:38:11;;;;;;;20.55;9.38;;;35.40;30.80;;;;;;4934781;29;20694;-72
2023/09/19 05:40:42;;;;;;;19.52;8.55;;;34.80;31.90;;;;;;4920037;29;20260;-73
2023/09/19 05:43:10;;;;;;;20.58;8.57;;;35.30;31.40;;;;;;4929783;29;20246;-72
2023/09/19 05:45:37;;;;;;;18.98;8.25;;;34.50;31.80;;;;;;4931303;29;20192;-73
2023/09/19 05:48:15;;;;;;;23.70;9.68;;;34.90;31.70;;;;;;4931286;29;20675;-73
2023/09/19 05:50:43;;;;;;;18.98;9.13;;;34.80;32.00;;;;;;4933191;29;20192;-72
2023/09/19 05:53:12;;;;;;;17.02;8.82;;;34.90;32.00;;;;;;4932483;29;20665;-73
2023/09/19 05:55:40;;;;;;;20.20;9.00;;;35.10;31.80;;;;;;4919837;29;20192;-73
2023/09/19 05:58:09;;;;;;;27.20;8.93;;;35.00;32.20;;;;;;4934819;29;20271;-72
2023/09/19 06:00:38;;;;;;;24.92;9.23;;;35.40;31.40;;;;;;4934324;29;20247;-72
2023/09/19 06:03:06;;;;;;;21.85;8.98;;;35.70;30.60;;;;;;4934736;29;20299;-73
2023/09/19 06:05:36;;;;;;;21.08;9.35;;;34.10;33.40;;;;;;4932395;29;20179;-71
2023/09/19 06:08:09;;;;;;;18.50;8.88;;;33.40;34.50;;;;;;4927096;29;20671;-73
2023/09/19 06:10:37;;;;;;;18.23;8.57;;;32.40;36.40;;;;;;4933117;29;20187;-73
2023/09/19 06:13:05;;;;;;;20.38;8.60;;;31.50;38.00;;;;;;4929789;29;20718;-73
2023/09/19 06:15:36;;;;;;;19.13;8.18;;;31.40;37.80;;;;;;4934579;29;20215;-72
2023/09/19 06:18:04;;;;;;;24.02;8.95;;;32.60;36.00;;;;;;4916498;29;20235;-73
2023/09/19 06:20:33;;;;;;;18.58;8.15;;;33.40;34.30;;;;;;4931253;29;20271;-74
2023/09/19 06:23:02;;;;;;;21.90;8.52;;;33.80;33.90;;;;;;4934264;29;20188;-73
2023/09/19 06:25:29;;;;;;;18.25;8.55;;;32.90;35.50;;;;;;4935617;29;20689;-71
2023/09/19 06:27:58;;;;;;;20.30;8.45;;;33.40;34.90;;;;;;4934886;29;20184;-71
2023/09/19 06:30:30;;;;;;;19.08;8.32;;;32.50;36.00;;;;;;4932343;29;20192;-73
2023/09/19 06:32:59;;;;;;;20.15;8.35;;;31.90;37.20;;;;;;4933228;29;20283;-73
2023/09/19 06:35:29;;;;;;;23.42;8.98;;;32.20;36.50;;;;;;4927554;29;20192;-74
2023/09/19 06:37:57;;;;;;;27.10;8.93;;;32.30;35.90;;;;;;4916259;29;20229;-74
2023/09/19 06:40:25;;;;;;;21.75;8.90;;;32.90;35.00;;;;;;4912955;29;20237;-75
2023/09/19 06:42:53;;;;;;;18.35;8.57;;;33.30;34.90;;;;;;4913950;29;20244;-73
2023/09/19 06:45:21;;;;;;;20.23;8.48;;;33.50;34.30;;;;;;4909030;29;20581;-72
2023/09/19 06:47:50;;;;;;;22.73;8.52;;;33.50;34.30;;;;;;4919530;29;20671;-73
2023/09/19 06:50:22;;;;;;;26.65;9.68;;;33.70;34.70;;;;;;4910151;29;20682;-73
2023/09/19 06:52:51;;;;;;;22.65;7.32;;;33.60;34.50;;;;;;4921937;29;20192;-73
2023/09/19 06:55:20;;;;;;;19.60;8.02;;;33.40;34.60;;;;;;4923632;29;20185;-73
2023/09/19 06:57:48;;;;;;;23.77;8.48;;;32.90;35.50;;;;;;4913072;29;20248;-74
2023/09/19 07:00:18;;;;;;;19.88;8.45;;;33.20;34.70;;;;;;4908407;29;20184;-73
2023/09/19 07:03:03;;;;;;;22.77;8.23;;;32.90;34.80;;;;;;4915691;29;20252;-71
2023/09/19 07:05:41;;;;;;;22.20;8.55;;;32.40;35.60;;;;;;4899096;29;20188;-73
2023/09/19 07:08:13;;;;;;;21.10;7.43;;;32.30;35.10;;;;;;4911787;29;20268;-73
2023/09/19 07:10:42;;;;;;;13.45;6.53;;;32.40;35.00;;;;;;4899723;29;20553;-72
2023/09/19 07:13:10;;;;;;;17.02;7.68;;;31.90;36.10;;;;;;4917838;29;20236;-71
2023/09/19 07:15:46;;;;;;;24.15;8.32;;;32.00;35.80;;;;;;4913112;29;20194;-74
2023/09/19 07:18:17;;;;;;;22.13;7.93;;;31.50;36.90;;;;;;4912499;29;20223;-73
2023/09/19 07:20:51;;;;;;;21.95;7.20;;;31.20;37.10;;;;;;4918940;29;20185;-72
2023/09/19 07:23:21;;;;;;;17.90;8.05;;;30.10;39.40;;;;;;4889205;29;20216;-73
2023/09/19 07:25:49;;;;;;;24.33;8.45;;;29.50;40.50;;;;;;4917387;29;20220;-74
2023/09/19 07:28:16;;;;;;;22.55;7.20;;;28.90;41.60;;;;;;4916739;29;20177;-74
2023/09/19 07:30:44;;;;;;;21.65;7.45;;;28.60;42.40;;;;;;4916898;29;20192;-73
2023/09/19 07:33:11;;;;;;;20.90;7.28;;;28.50;42.70;;;;;;4919370;29;20659;-73
2023/09/19 07:35:42;;;;;;;25.87;8.97;;;28.30;43.10;;;;;;4920537;29;20282;-74
2023/09/19 07:38:11;;;;;;;26.53;8.63;;;28.30;43.40;;;;;;4934732;29;20215;-75
2023/09/19 07:40:38;;;;;;;18.47;7.93;;;28.10;43.80;;;;;;4932802;29;20187;-74
2023/09/19 07:43:06;;;;;;;21.93;7.47;;;27.80;44.50;;;;;;4928583;29;20199;-73
2023/09/19 07:45:34;;;;;;;24.60;8.47;;;27.70;45.20;;;;;;4936021;29;20196;-73
2023/09/19 07:48:04;;;;;;;21.90;8.47;;;27.40;45.70;;;;;;4934458;29;20192;-75
2023/09/19 07:50:33;;;;;;;22.27;7.40;;;27.30;46.10;;;;;;4932470;29;20200;-74
2023/09/19 07:53:04;;;;;;;21.47;7.87;;;27.10;46.40;;;;;;4934450;29;20188;-74
2023/09/19 07:55:33;;;;;;;21.20;7.73;;;27.00;46.80;;;;;;4931113;29;20232;-74
2023/09/19 07:58:03;;;;;;;22.10;8.10;;;26.90;47.10;;;;;;4930873;29;20389;-73
2023/09/19 08:00:32;;;;;;;20.00;8.37;;;26.80;47.40;;;;;;4931244;29;20184;-75
2023/09/19 08:02:59;;;;;;;24.17;8.63;;;26.80;47.60;;;;;;4933797;29;20192;-75
2023/09/19 08:05:27;;;;;;;20.57;7.70;;;26.70;47.80;;;;;;4933459;29;20192;-74
2023/09/19 08:07:56;;;;;;;28.87;10.60;;;26.50;48.40;;;;;;4935194;29;20661;-74
2023/09/19 08:10:27;;;;;;;27.97;10.70;;;26.40;48.80;;;;;;4933097;29;20211;-74
2023/09/19 08:12:57;;;;;;;33.47;13.63;;;26.30;49.10;;;;;;4933620;29;20655;-74
2023/09/19 08:15:26;;;;;;;24.80;12.60;;;26.30;49.50;;;;;;4919614;29;21037;-74
2023/09/19 08:17:54;;;;;;;27.43;9.53;;;26.20;49.70;;;;;;4916772;29;20238;-75
2023/09/19 08:20:25;;;;;;;24.80;9.37;;;26.00;50.40;;;;;;4924684;29;20557;-74
2023/09/19 08:22:56;;;;;;;29.57;8.33;;;25.90;51.00;;;;;;4914922;29;20204;-75
2023/09/19 08:25:26;;;;;;;23.23;8.63;;;25.80;51.30;;;;;;4928763;29;20252;-75
2023/09/19 08:27:57;;;;;;;26.60;9.10;;;25.80;51.60;;;;;;4930747;29;20188;-73
2023/09/19 08:30:27;;;;;;;27.33;10.13;;;25.70;51.50;;;;;;4927653;29;20259;-73
2023/09/19 08:33:05;;;;;;;22.43;9.00;;;25.60;51.90;;;;;;4927198;29;20192;-74
2023/09/19 08:35:32;;;;;;;25.70;8.97;;;25.50;52.20;;;;;;4930217;29;20231;-74
2023/09/19 08:38:04;;;;;;;28.33;9.10;;;25.30;52.70;;;;;;4931750;29;20225;-76
2023/09/19 08:40:39;;;;;;;23.77;9.63;;;25.30;52.80;;;;;;4927719;29;20868;-74
2023/09/19 08:43:07;;;;;;;24.73;9.03;;;25.20;53.00;;;;;;4930598;29;20191;-73
2023/09/19 08:45:37;;;;;;;24.50;9.30;;;25.20;53.10;;;;;;4931782;29;20204;-74
2023/09/19 08:48:36;;;;;;;31.07;10.63;;;25.20;53.20;;;;;;4931595;29;20660;-74
2023/09/19 08:51:18;;;;;;;24.90;10.27;;;25.20;53.40;;;;;;4916475;29;20204;-75
2023/09/19 08:54:07;;;;;;;32.90;10.20;;;25.00;53.90;;;;;;4933792;29;20192;-73
2023/09/19 08:56:39;;;;;;;34.47;9.77;;;24.80;54.40;;;;;;4934301;29;20200;-75
2023/09/19 08:59:09;;;;;;;27.77;10.47;;;24.80;54.60;;;;;;4934041;29;20184;-75
2023/09/19 09:01:41;;;;;;;27.97;10.00;;;24.80;54.70;;;;;;4936067;29;20224;-73
2023/09/19 09:04:12;;;;;;;31.87;10.83;;;24.70;55.10;;;;;;4938036;29;20256;-74
2023/09/19 09:06:50;;;;;;;28.50;9.90;;;24.70;55.00;;;;;;4941809;29;20188;-74
2023/09/19 09:09:18;;;;;;;29.23;10.60;;;24.60;55.30;;;;;;4938606;29;20215;-73
2023/09/19 09:11:46;;;;;;;20.37;9.40;;;24.50;55.90;;;;;;4941838;29;20219;-74
2023/09/19 09:14:14;;;;;;;25.80;9.93;;;24.40;55.80;;;;;;4938040;29;20192;-74
2023/09/19 09:16:42;;;;;;;27.67;9.50;;;24.50;54.90;;;;;;4937732;29;20188;-74
2023/09/19 09:19:10;;;;;;;27.43;8.73;;;24.50;55.00;;;;;;4936979;29;20198;-75
2023/09/19 09:21:38;;;;;;;31.23;10.03;;;24.40;54.60;;;;;;4937298;29;20643;-73
2023/09/19 09:24:33;;;;;;;24.93;8.27;;;24.30;54.60;;;;;;4935143;29;20199;-73
2023/09/19 09:27:05;;;;;;;36.60;9.30;;;24.30;54.50;;;;;;4935607;29;20357;-76
2023/09/19 09:29:49;;;;;;;23.80;8.73;;;24.30;54.40;;;;;;4932390;29;20217;-74
2023/09/19 09:32:26;;;;;;;26.87;8.93;;;24.30;54.50;;;;;;4935054;29;20192;-75
2023/09/19 09:34:56;;;;;;;24.30;8.87;;;24.30;54.60;;;;;;4931407;29;20710;-74
2023/09/19 09:37:26;;;;;;;32.10;8.80;;;24.30;54.30;;;;;;4934127;29;20239;-75
2023/09/19 09:39:56;;;;;;;23.77;8.50;;;24.20;53.80;;;;;;4931400;29;20619;-76
2023/09/19 09:42:32;;;;;;;26.97;9.07;;;24.10;54.10;;;;;;4936331;29;20199;-75
2023/09/19 09:48:14;;;;;;;26.17;8.47;;;24.00;54.20;;;;;;4933932;29;20179;-75
2023/09/19 09:50:55;;;;;;;28.30;8.43;;;23.90;54.40;;;;;;4934064;29;20543;-75
2023/09/19 09:53:30;;;;;;;23.43;7.83;;;23.90;54.50;;;;;;4933389;29;20702;-75
2023/09/19 09:56:13;;;;;;;24.23;8.70;;;23.80;54.70;;;;;;4928695;29;20267;-73
2023/09/19 09:58:55;;;;;;;25.27;8.40;;;23.80;54.70;;;;;;4931978;29;20220;-74
2023/09/19 10:01:26;;;;;;;24.37;8.40;;;23.70;54.90;;;;;;4934527;29;20188;-75
2023/09/19 10:04:00;;;;;;;26.57;8.70;;;23.70;54.90;;;;;;4935074;29;20224;-74
2023/09/19 10:06:47;;;;;;;26.40;8.77;;;23.70;54.80;;;;;;4933810;29;20221;-74
2023/09/19 10:09:17;;;;;;;21.40;9.13;;;23.70;55.10;;;;;;4935295;29;20191;-74
2023/09/19 10:11:47;;;;;;;22.87;8.53;;;23.60;55.40;;;;;;4936819;29;20216;-74
2023/09/19 10:14:18;;;;;;;29.60;8.80;;;23.60;55.30;;;;;;4933296;29;20564;-74
2023/09/19 10:16:49;;;;;;;20.17;8.93;;;23.60;55.20;;;;;;4936794;29;20614;-77
2023/09/19 10:19:33;;;;;;;27.10;9.00;;;23.50;55.40;;;;;;4932953;29;20188;-75
2023/09/19 10:22:04;;;;;;;24.60;9.10;;;23.40;55.30;;;;;;4911114;29;20196;-73
2023/09/19 10:24:34;;;;;;;23.53;8.87;;;23.30;55.60;;;;;;4931730;29;20754;-75
2023/09/19 10:27:03;;;;;;;23.37;8.87;;;23.30;55.30;;;;;;4929265;29;20199;-75
2023/09/19 10:29:36;;;;;;;18.83;8.57;;;23.30;55.00;;;;;;4928799;29;20189;-76
2023/09/19 10:32:06;;;;;;;22.53;8.70;;;23.30;54.80;;;;;;4934402;29;20192;-77
2023/09/19 10:34:37;;;;;;;20.53;8.33;;;23.20;54.90;;;;;;4929058;29;20630;-74
2023/09/19 10:37:09;;;;;;;24.43;9.23;;;23.20;55.10;;;;;;4933791;29;20710;-75
2023/09/19 10:39:40;;;;;;;27.73;15.20;;;23.10;55.40;;;;;;4932621;29;21582;-75
2023/09/19 10:42:09;;;;;;;31.87;13.97;;;23.20;56.00;;;;;;4934414;29;20192;-74
2023/09/19 10:44:44;;;;;;;34.30;11.73;;;23.00;57.40;;;;;;4931366;29;20188;-75
2023/09/19 10:47:13;;;;;;;28.43;9.73;;;23.00;58.40;;;;;;4931312;29;20276;-75
2023/09/19 10:49:48;;;;;;;23.77;9.63;;;22.90;58.70;;;;;;4930236;29;20697;-74
2023/09/19 10:52:19;;;;;;;31.63;9.97;;;22.90;58.20;;;;;;4930607;29;20191;-75
2023/09/19 10:54:52;;;;;;;27.87;9.63;;;22.90;57.80;;;;;;4929756;29;20183;-75
2023/09/19 10:57:24;;;;;;;32.43;9.50;;;22.90;57.70;;;;;;4927421;29;20242;-75
2023/09/19 11:00:23;;;;;;;32.47;9.57;;;22.90;57.60;;;;;;4931008;29;20185;-74
2023/09/19 11:03:12;;;;;;;26.70;8.60;;;22.80;58.00;;;;;;4901709;29;20204;-75
2023/09/19 11:05:41;;;;;;;30.20;10.00;;;22.80;58.00;;;;;;4907856;29;20675;-75
2023/09/19 11:08:11;;;;;;;24.77;9.17;;;22.80;57.90;;;;;;4929161;29;20296;-74
2023/09/19 11:10:59;;;;;;;33.90;9.80;;;22.80;57.80;;;;;;4933423;29;20180;-75
2023/09/19 11:13:38;;;;;;;28.83;10.23;;;22.80;57.80;;;;;;4931510;29;20191;-75
2023/09/19 11:16:06;;;;;;;29.80;10.27;;;22.70;58.60;;;;;;4926535;29;20188;-73
2023/09/19 11:18:43;;;;;;;27.50;8.93;;;22.50;58.90;;;;;;4931681;29;20224;-75
2023/09/19 11:21:33;;;;;;;30.40;9.23;;;22.50;57.80;;;;;;4931344;29;20188;-74
2023/09/19 11:24:30;;;;;;;27.23;9.07;;;22.50;57.10;;;;;;4931969;29;20220;-76
2023/09/19 11:27:17;;;;;;;27.67;7.77;;;22.50;56.40;;;;;;4933150;29;20188;-74
2023/09/19 11:29:45;;;;;;;28.77;7.77;;;22.60;54.20;;;;;;4930268;29;20252;-74
2023/09/19 11:32:17;;;;;;;22.57;7.30;;;22.70;53.10;;;;;;4927672;29;20235;-76
2023/09/19 11:34:47;;;;;;;23.27;7.60;;;22.70;52.00;;;;;;4925670;29;20196;-75
2023/09/19 11:37:17;;;;;;;21.30;8.03;;;22.80;51.80;;;;;;4929265;29;20234;-75
2023/09/19 11:40:15;;;;;;;27.67;8.30;;;22.80;51.60;;;;;;4934498;29;20193;-75
2023/09/19 11:42:53;;;;;;;26.87;8.87;;;22.80;52.70;;;;;;4934684;29;20216;-74
2023/09/19 11:45:56;;;;;;;28.10;8.47;;;22.70;52.80;;;;;;4932175;29;20213;-76
2023/09/19 11:48:25;;;;;;;17.17;7.63;;;22.60;52.60;;;;;;4930747;29;20198;-76
2023/09/19 11:50:53;;;;;;;18.90;7.50;;;22.50;51.80;;;;;;4931832;29;20187;-76
2023/09/19 11:53:22;;;;;;;18.00;7.27;;;22.50;51.30;;;;;;4923856;29;20227;-75
2023/09/19 11:55:50;;;;;;;19.93;7.23;;;22.50;50.70;;;;;;4934162;29;20659;-76
2023/09/19 11:58:18;;;;;;;24.37;8.43;;;22.60;49.60;;;;;;4923313;29;20222;-76
2023/09/19 12:00:46;;;;;;;16.63;7.17;;;22.60;48.80;;;;;;4932176;29;20199;-75
2023/09/19 12:03:14;;;;;;;21.20;7.53;;;22.70;48.40;;;;;;4931829;29;20192;-75
2023/09/19 12:05:42;;;;;;;17.33;7.57;;;22.70;49.00;;;;;;4931479;29;20269;-74
2023/09/19 12:08:09;;;;;;;18.87;7.73;;;22.70;49.00;;;;;;4932129;29;20188;-76
2023/09/19 12:10:55;;;;;;;24.40;8.07;;;22.70;48.70;;;;;;4928215;29;20548;-76
2023/09/19 12:13:23;;;;;;;19.83;7.57;;;22.80;48.70;;;;;;4933666;29;20187;-75
2023/09/19 12:15:50;;;;;;;18.50;7.43;;;22.70;48.90;;;;;;4933961;29;20214;-75
2023/09/19 12:18:29;;;;;;;21.77;8.27;;;22.70;49.00;;;;;;4931408;29;20281;-76
2023/09/19 12:21:04;;;;;;;16.57;7.17;;;22.60;48.90;;;;;;4931772;29;20172;-76
2023/09/19 12:23:35;;;;;;;21.77;7.53;;;22.60;48.40;;;;;;4930844;29;20195;-75
2023/09/19 12:26:12;;;;;;;14.30;7.50;;;22.50;48.10;;;;;;4932378;29;20188;-74
2023/09/19 12:28:43;;;;;;;16.97;6.47;;;22.50;47.70;;;;;;4928752;29;20175;-75
2023/09/19 12:31:11;;;;;;;25.67;7.47;;;22.50;47.40;;;;;;4930862;29;20663;-76
2023/09/19 12:33:39;;;;;;;29.17;7.77;;;22.50;46.90;;;;;;4935250;29;20290;-76
2023/09/19 12:36:32;;;;;;;17.60;7.57;;;22.60;47.10;;;;;;4935433;29;20236;-74
2023/09/19 12:38:59;;;;;;;19.87;7.73;;;22.60;46.40;;;;;;4932987;29;20234;-76
2023/09/19 12:41:27;;;;;;;18.80;7.60;;;22.50;46.20;;;;;;4934209;29;20590;-76
2023/09/19 12:43:55;;;;;;;17.23;6.80;;;22.50;45.80;;;;;;4938181;29;20527;-75
2023/09/19 12:46:26;;;;;;;18.53;6.23;;;22.50;45.70;;;;;;4938232;29;20212;-74
2023/09/19 12:49:26;;;;;;;19.70;7.00;;;22.50;45.90;;;;;;4934288;29;20228;-77
2023/09/19 12:51:59;;;;;;;14.70;6.27;;;22.60;45.50;;;;;;4925035;29;20195;-75
2023/09/19 12:54:38;;;;;;;16.03;7.30;;;22.50;46.10;;;;;;4936743;29;20203;-74
2023/09/19 12:57:05;;;;;;;13.23;6.17;;;22.30;47.90;;;;;;4937056;29;20225;-76
2023/09/19 12:59:36;;;;;;;13.83;6.13;;;22.20;46.40;;;;;;4937525;29;20200;-75
2023/09/19 13:02:07;;;;;;;18.90;6.33;;;22.10;47.30;;;;;;4933600;29;20220;-74
2023/09/19 13:04:40;;;;;;;12.67;5.50;;;22.00;45.70;;;;;;4917548;29;20185;-76
2023/09/19 13:07:08;;;;;;;9.80;5.03;;;22.00;44.10;;;;;;4936243;29;20179;-77
2023/09/19 13:09:38;;;;;;;11.60;4.37;;;22.10;43.10;;;;;;4919900;29;20242;-75